Latest METARs, TAFs and NOTAMs for TTPP


---------------------------------------------------------------------------
	(OBSERVATIONS)
TTPP 160400Z 100087KT 9999 -RA VCSH FEW016 25/24 Q1013 RERA TEMPO
    5000 SHRA RMK VCSH-ALL QUADS=
TTPP 160300Z 11008KT 9999 3000NE -RA VCSH SCT016 25/24 Q1014
    TEMPO TSRA RMK VCSH-ALL QUADS=
TTPP 160200Z 09008KT 9999 -SHRA VCSH SCT016 25/24 Q1013 TEMPO
    5000 SHRA RMK VCSH-ALL QUADS=
---------------------------------------------------------------------------
	(TERMINAL AREA FORECAST)
TTPP 152200Z 1600/1624 09008KT 9999 SCT016 SCT038
    TEMPO 1600/1612 5000 SHRA
    PROB40 TEMPO 1602/1608 10014G25KT 3000 TSRA FEW010CB BKN014
    BECMG 1612/1614 10015KT SCT018=
---------------------------------------------------------------------------
	(NOTAMS)


TTPP A0413/22 GENERAL AVIATION PRKG AREA CLSD. 04 MAR 01:50 UNTIL
    03 JUN 12:00

TTPP A0489/22 WIP AT WASA CARONI WATER TREATMENT PLANT. CRANES
    ERECTED 1000M SOUTH OF THE CENTRELINE OF RWY 10/28, NOT MORE
    THAN 60FT IN HEIGHT WITH RELEVANT SAFETY DEVICES AND LIGHTS.
    SFC 60FT AGL 15 MAR 17:00 UNTIL 15 JUN 15:00

TTPP A0534/22 STAND N16 NORTH APRON CLOSED TO ALL AIRCRAFT. 25
    MAR 13:45 UNTIL 25 JUN 13:45

TTPP A0535/22 GATE S7 ON THE SOUTH ARON TO BE USED FOR REFUELING
    OF LIGHT AIRCRAFT ONLY. NO LONG TERM PARKING PERMITTED. 25
    MAR 13:45 UNTIL 25 JUN 13:45

TTPP A0669/22 ALL ACFT TO BE TOWED IN AND OUT OF GATES 1 AND
    2 ON THE SOUTH APRON EXCEPT LIGHT ACFT. 08 APR 17:42 UNTIL
    07 JUL 12:00

TTPP F0016/07 [DEFENSE ENERGY SUPPORT CENTER ADVISORY] FUEL AVAILABILITY
    NOT AVAILABLE: CONTRACTOR PLACED ON QUALITY HOLD DUE TO NONCOMPLIANCE
    OF SAMPLE SUBMISSION. 12 JUL 20:18 2020 UNTIL 01 AUG 21:18
    2020

---------------------------------------------------------------------------